createdAt,value
2023-04-02T00:00:35.645Z,5.45
2023-04-02T00:01:35.599Z,5.50
2023-04-02T00:02:35.707Z,5.49
2023-04-02T00:03:35.682Z,5.50
2023-04-02T00:04:35.568Z,5.50
2023-04-02T00:05:35.796Z,5.46
2023-04-02T00:06:35.551Z,5.45
2023-04-02T00:07:35.533Z,5.48
2023-04-02T00:08:35.523Z,5.49
2023-04-02T00:09:35.513Z,5.53
2023-04-02T00:10:35.543Z,5.41
2023-04-02T00:11:35.498Z,5.45
2023-04-02T00:12:35.493Z,5.46
2023-04-02T00:13:35.508Z,5.43
2023-04-02T00:14:35.466Z,5.35
2023-04-02T00:15:35.772Z,5.43
2023-04-02T00:16:35.461Z,5.38
2023-04-02T00:17:35.438Z,5.43
2023-04-02T00:18:35.461Z,5.38
2023-04-02T00:19:35.463Z,5.34
2023-04-02T00:20:35.522Z,5.40
2023-04-02T00:21:35.394Z,5.28
2023-04-02T00:22:35.396Z,5.23
2023-04-02T00:23:35.365Z,5.20
2023-04-02T00:24:35.367Z,5.20
2023-04-02T00:25:35.667Z,5.32
2023-04-02T00:26:35.366Z,5.25
2023-04-02T00:27:35.355Z,5.35
2023-04-02T00:28:35.342Z,5.32
2023-04-02T00:29:35.303Z,5.34
2023-04-02T00:30:35.308Z,5.38
2023-04-02T00:31:35.310Z,5.32
2023-04-02T00:32:35.300Z,5.32
2023-04-02T00:33:35.271Z,5.32
2023-04-02T00:34:35.249Z,5.30
2023-04-02T00:35:35.512Z,5.27
2023-04-02T00:36:35.226Z,5.27
2023-04-02T00:37:35.223Z,5.31
2023-04-02T00:38:35.203Z,5.31
2023-04-02T00:39:35.193Z,5.22
2023-04-02T00:40:35.207Z,5.23
2023-04-02T00:41:35.172Z,5.30
2023-04-02T00:42:35.161Z,5.17
2023-04-02T00:43:35.155Z,5.19
2023-04-02T00:44:35.139Z,5.22
2023-04-02T00:45:35.367Z,5.25
2023-04-02T00:46:35.118Z,5.22
2023-04-02T00:47:35.150Z,5.22
2023-04-02T00:48:35.161Z,5.20
2023-04-02T00:49:35.093Z,5.13
2023-04-02T00:50:35.098Z,5.17
2023-04-02T00:51:35.103Z,5.13
2023-04-02T00:52:35.054Z,5.14
2023-04-02T00:53:35.120Z,5.12
2023-04-02T00:54:35.029Z,5.12
2023-04-02T00:55:35.380Z,4.98
2023-04-02T00:56:35.010Z,4.92
2023-04-02T00:57:35.102Z,5.05
2023-04-02T00:58:34.991Z,4.99
2023-04-02T00:59:34.982Z,4.95
2023-04-02T01:00:34.988Z,5.12
2023-04-02T01:01:34.988Z,5.12
2023-04-02T01:02:35.027Z,5.12
2023-04-02T01:03:35.432Z,5.10
2023-04-02T01:04:34.931Z,5.09
2023-04-02T01:05:35.208Z,5.13
2023-04-02T01:06:34.904Z,5.16
2023-04-02T01:07:34.911Z,5.07
2023-04-02T01:08:34.919Z,5.10
2023-04-02T01:09:34.869Z,4.96
2023-04-02T01:10:34.889Z,4.95
2023-04-02T01:11:34.857Z,4.99
2023-04-02T01:12:34.848Z,4.96
2023-04-02T01:13:34.825Z,5.01
2023-04-02T01:14:34.842Z,4.99
2023-04-02T01:15:35.119Z,4.92
2023-04-02T01:16:34.794Z,4.96
2023-04-02T01:17:34.794Z,4.91
2023-04-02T01:18:34.790Z,4.99
2023-04-02T01:19:34.760Z,4.98
2023-04-02T01:20:34.775Z,5.05
2023-04-02T01:21:34.739Z,5.04
2023-04-02T01:22:34.728Z,4.96
2023-04-02T01:23:34.741Z,4.98
2023-04-02T01:24:34.717Z,4.98
2023-04-02T01:25:34.903Z,4.96
2023-04-02T01:26:34.684Z,4.92
2023-04-02T01:27:34.688Z,4.99
2023-04-02T01:28:34.674Z,4.96
2023-04-02T01:29:34.649Z,4.98
2023-04-02T01:30:34.655Z,4.98
2023-04-02T01:31:34.711Z,4.98
2023-04-02T01:32:34.637Z,5.04
2023-04-02T01:33:34.607Z,4.92
2023-04-02T01:34:34.598Z,4.88
2023-04-02T01:35:34.912Z,4.95
2023-04-02T01:36:34.584Z,4.96
2023-04-02T01:37:34.565Z,5.04
2023-04-02T01:38:34.602Z,4.91
2023-04-02T01:39:34.575Z,4.95
2023-04-02T01:40:34.559Z,4.96
2023-04-02T01:41:34.522Z,4.98
2023-04-02T01:42:34.574Z,4.92
2023-04-02T01:43:34.538Z,5.05
2023-04-02T01:44:34.508Z,5.07
2023-04-02T01:45:34.634Z,5.07
2023-04-02T01:46:34.506Z,4.99
2023-04-02T01:47:34.506Z,5.05
2023-04-02T01:48:34.448Z,5.09
2023-04-02T01:49:34.435Z,4.96
2023-04-02T01:50:34.437Z,5.07
2023-04-02T01:51:34.417Z,4.99
2023-04-02T01:52:34.402Z,5.05
2023-04-02T01:53:34.392Z,5.09
2023-04-02T01:54:34.384Z,5.13
2023-04-02T01:55:34.588Z,5.01
2023-04-02T01:56:34.363Z,5.04
2023-04-02T01:57:34.426Z,5.04
2023-04-02T01:58:34.347Z,5.10
2023-04-02T01:59:34.326Z,5.14
2023-04-02T02:00:34.366Z,5.09
2023-04-02T02:01:34.305Z,5.14
2023-04-02T02:02:34.456Z,5.07
2023-04-02T02:03:34.290Z,5.04
2023-04-02T02:04:34.276Z,5.02
2023-04-02T02:05:34.544Z,5.05
2023-04-02T02:06:34.250Z,5.04
2023-04-02T02:07:34.240Z,5.12
2023-04-02T02:08:34.237Z,5.04
2023-04-02T02:09:34.224Z,5.04
2023-04-02T02:10:34.225Z,5.10
2023-04-02T02:11:34.217Z,5.07
2023-04-02T02:12:34.191Z,5.13
2023-04-02T02:13:34.178Z,5.12
2023-04-02T02:14:34.170Z,5.13
2023-04-02T02:15:34.525Z,5.09
2023-04-02T02:16:34.721Z,5.10
2023-04-02T02:17:34.145Z,5.04
2023-04-02T02:18:34.144Z,5.05
2023-04-02T02:19:34.116Z,5.04
2023-04-02T02:20:34.129Z,5.12
2023-04-02T02:21:34.106Z,5.13
2023-04-02T02:22:34.088Z,5.07
2023-04-02T02:23:34.101Z,5.09
2023-04-02T02:24:34.062Z,5.17
2023-04-02T02:25:34.433Z,5.12
2023-04-02T02:26:34.051Z,5.07
2023-04-02T02:27:34.051Z,5.13
2023-04-02T02:28:34.049Z,5.13
2023-04-02T02:29:34.009Z,5.04
2023-04-02T02:30:34.001Z,5.10
2023-04-02T02:31:34.086Z,5.14
2023-04-02T02:32:34.001Z,5.04
2023-04-02T02:33:33.994Z,5.16
2023-04-02T02:34:33.959Z,5.12
2023-04-02T02:35:34.380Z,5.13
2023-04-02T02:36:33.940Z,5.13
2023-04-02T02:37:33.927Z,5.09
2023-04-02T02:38:33.930Z,5.10
2023-04-02T02:39:33.902Z,5.10
2023-04-02T02:40:33.909Z,5.05
2023-04-02T02:41:33.879Z,5.13
2023-04-02T02:42:33.875Z,5.05
2023-04-02T02:43:33.884Z,5.05
2023-04-02T02:44:33.852Z,5.09
2023-04-02T02:45:34.121Z,4.96
2023-04-02T02:46:33.837Z,4.89
2023-04-02T02:47:33.830Z,5.07
2023-04-02T02:48:33.814Z,4.95
2023-04-02T02:49:33.791Z,5.04
2023-04-02T02:50:33.802Z,4.95
2023-04-02T02:51:33.774Z,4.94
2023-04-02T02:52:33.760Z,4.92
2023-04-02T02:53:33.747Z,5.02
2023-04-02T02:54:33.740Z,4.95
2023-04-02T02:55:33.992Z,4.89
2023-04-02T02:56:33.729Z,4.84
2023-04-02T02:57:33.735Z,4.92
2023-04-02T02:58:33.698Z,4.91
2023-04-02T02:59:33.742Z,4.79
2023-04-02T03:00:33.695Z,4.83
2023-04-02T03:01:33.698Z,4.94
2023-04-02T03:02:33.755Z,4.91
2023-04-02T03:03:33.792Z,4.88
2023-04-02T03:04:33.630Z,4.84
2023-04-02T03:05:33.885Z,4.83
2023-04-02T03:06:33.610Z,4.83
2023-04-02T03:07:33.597Z,4.79
2023-04-02T03:08:33.590Z,4.77
2023-04-02T03:09:33.587Z,4.83
2023-04-02T03:10:33.579Z,4.79
2023-04-02T03:11:33.553Z,4.77
2023-04-02T03:12:33.553Z,4.73
2023-04-02T03:13:33.534Z,4.62
2023-04-02T03:14:33.525Z,4.77
2023-04-02T03:15:33.971Z,4.69
2023-04-02T03:16:33.503Z,4.62
2023-04-02T03:17:33.511Z,4.79
2023-04-02T03:18:33.498Z,4.76
2023-04-02T03:19:33.503Z,4.73
2023-04-02T03:20:33.464Z,4.76
2023-04-02T03:21:33.502Z,4.72
2023-04-02T03:22:33.449Z,4.73
2023-04-02T03:23:33.471Z,4.67
2023-04-02T03:24:33.416Z,4.62
2023-04-02T03:25:33.659Z,4.72
2023-04-02T03:26:33.419Z,4.72
2023-04-02T03:27:33.394Z,4.62
2023-04-02T03:28:33.442Z,4.62
2023-04-02T03:29:33.391Z,4.69
2023-04-02T03:30:33.366Z,4.61
2023-04-02T03:31:33.402Z,4.65
2023-04-02T03:32:33.363Z,4.61
2023-04-02T03:33:33.334Z,4.65
2023-04-02T03:34:33.318Z,4.65
2023-04-02T03:35:33.601Z,4.61
2023-04-02T03:36:33.340Z,4.69
2023-04-02T03:37:33.294Z,4.73
2023-04-02T03:38:33.276Z,4.64
2023-04-02T03:39:33.263Z,4.61
2023-04-02T03:40:33.252Z,4.72
2023-04-02T03:41:33.260Z,4.61
2023-04-02T03:42:33.232Z,4.72
2023-04-02T03:43:33.225Z,4.70
2023-04-02T03:44:33.214Z,4.62
2023-04-02T03:45:33.342Z,4.64
2023-04-02T03:46:33.264Z,4.69
2023-04-02T03:47:33.263Z,4.77
2023-04-02T03:48:33.166Z,4.72
2023-04-02T03:49:33.153Z,4.58
2023-04-02T03:50:33.145Z,4.62
2023-04-02T03:51:33.148Z,4.59
2023-04-02T03:52:33.121Z,4.67
2023-04-02T03:53:33.111Z,4.59
2023-04-02T03:54:33.104Z,4.59
2023-04-02T03:55:33.404Z,4.69
2023-04-02T03:56:33.098Z,4.67
2023-04-02T03:57:33.138Z,4.59
2023-04-02T03:58:33.060Z,4.47
2023-04-02T03:59:33.046Z,4.64
2023-04-02T04:00:33.038Z,4.64
2023-04-02T04:01:33.070Z,4.64
2023-04-02T04:02:33.062Z,4.69
2023-04-02T04:03:33.029Z,4.61
2023-04-02T04:04:33.083Z,4.75
2023-04-02T04:05:33.332Z,4.65
2023-04-02T04:06:32.993Z,4.69
2023-04-02T04:07:32.959Z,4.72
2023-04-02T04:08:32.950Z,4.86
2023-04-02T04:09:32.953Z,4.86
2023-04-02T04:10:32.933Z,4.86
2023-04-02T04:11:32.934Z,4.84
2023-04-02T04:12:32.917Z,4.83
2023-04-02T04:13:32.897Z,4.89
2023-04-02T04:14:32.895Z,4.95
2023-04-02T04:15:33.052Z,4.91
2023-04-02T04:16:32.914Z,4.96
2023-04-02T04:17:32.887Z,4.94
2023-04-02T04:18:32.848Z,4.94
2023-04-02T04:19:32.853Z,4.89
2023-04-02T04:20:32.825Z,4.91
2023-04-02T04:21:32.827Z,4.84
2023-04-02T04:22:32.801Z,4.89
2023-04-02T04:23:32.792Z,4.89
2023-04-02T04:24:32.786Z,4.88
2023-04-02T04:25:32.826Z,4.91
2023-04-02T04:26:32.770Z,4.88
2023-04-02T04:27:32.750Z,4.86
2023-04-02T04:28:32.760Z,4.91
2023-04-02T04:29:32.725Z,4.89
2023-04-02T04:30:32.723Z,4.98
2023-04-02T04:31:32.756Z,4.94
2023-04-02T04:32:32.748Z,4.88
2023-04-02T04:33:32.684Z,4.96
2023-04-02T04:34:32.675Z,4.91
2023-04-02T04:35:32.761Z,4.95
2023-04-02T04:36:32.669Z,4.91
2023-04-02T04:37:32.648Z,4.89
2023-04-02T04:38:32.640Z,4.92
2023-04-02T04:39:32.626Z,4.77
2023-04-02T04:40:32.649Z,4.73
2023-04-02T04:41:32.609Z,4.70
2023-04-02T04:42:32.596Z,4.70
2023-04-02T04:43:32.591Z,4.64
2023-04-02T04:44:32.572Z,4.77
2023-04-02T04:45:32.761Z,4.80
2023-04-02T04:46:32.632Z,4.83
2023-04-02T04:47:32.575Z,4.80
2023-04-02T04:48:34.003Z,4.83
2023-04-02T04:49:32.514Z,4.62
2023-04-02T04:50:32.507Z,4.69
2023-04-02T04:51:32.588Z,4.73
2023-04-02T04:52:32.486Z,4.72
2023-04-02T04:53:32.480Z,4.64
2023-04-02T04:54:32.475Z,4.80
2023-04-02T04:55:32.477Z,4.67
2023-04-02T04:56:32.466Z,4.65
2023-04-02T04:57:32.459Z,4.70
2023-04-02T04:58:32.430Z,4.72
2023-04-02T04:59:32.434Z,4.73
2023-04-02T05:00:32.400Z,4.75
2023-04-02T05:01:32.444Z,4.84
2023-04-02T05:02:32.403Z,4.80
2023-04-02T05:03:32.371Z,4.88
2023-04-02T05:04:32.374Z,4.92
2023-04-02T05:05:32.356Z,4.98
2023-04-02T05:06:32.373Z,4.89
2023-04-02T05:07:32.345Z,4.94
2023-04-02T05:08:32.321Z,4.80
2023-04-02T05:09:32.303Z,5.04
2023-04-02T05:10:32.293Z,4.89
2023-04-02T05:11:32.294Z,4.99
2023-04-02T05:12:32.273Z,4.95
2023-04-02T05:13:32.258Z,5.09
2023-04-02T05:14:32.265Z,5.04
2023-04-02T05:15:32.299Z,5.05
2023-04-02T05:16:32.295Z,5.05
2023-04-02T05:17:32.229Z,5.12
2023-04-02T05:18:32.266Z,5.09
2023-04-02T05:19:32.192Z,5.09
2023-04-02T05:20:32.184Z,5.09
2023-04-02T05:21:32.175Z,5.09
2023-04-02T05:22:32.166Z,5.13
2023-04-02T05:23:32.210Z,5.13
2023-04-02T05:24:32.144Z,5.09
2023-04-02T05:25:32.128Z,5.07
2023-04-02T05:26:32.131Z,5.12
2023-04-02T05:27:32.110Z,5.16
2023-04-02T05:28:32.097Z,5.16
2023-04-02T05:29:32.101Z,5.13
2023-04-02T05:30:32.077Z,5.07
2023-04-02T05:31:32.132Z,5.16
2023-04-02T05:32:32.091Z,5.17
2023-04-02T05:33:32.040Z,5.17
2023-04-02T05:34:32.033Z,5.13
2023-04-02T05:35:32.024Z,5.17
2023-04-02T05:36:32.029Z,5.22
2023-04-02T05:37:32.011Z,5.23
2023-04-02T05:38:31.999Z,5.14
2023-04-02T05:39:31.999Z,5.10
2023-04-02T05:40:31.969Z,5.04
2023-04-02T05:41:31.989Z,4.98
2023-04-02T05:42:31.954Z,5.04
2023-04-02T05:43:31.937Z,5.05
2023-04-02T05:44:31.928Z,5.04
2023-04-02T05:45:31.934Z,5.13
2023-04-02T05:46:31.969Z,5.14
2023-04-02T05:47:31.907Z,5.12
2023-04-02T05:48:31.888Z,5.10
2023-04-02T05:49:31.876Z,5.23
2023-04-02T05:50:31.865Z,5.28
2023-04-02T05:51:31.869Z,5.23
2023-04-02T05:52:31.845Z,5.23
2023-04-02T05:53:31.835Z,5.30
2023-04-02T05:54:31.826Z,5.31
2023-04-02T05:55:31.849Z,5.40
2023-04-02T05:56:31.828Z,5.30
2023-04-02T05:57:42.743Z,5.32
2023-04-02T05:58:36.102Z,5.49
2023-04-02T05:59:31.764Z,5.45
2023-04-02T06:00:31.757Z,5.52
2023-04-02T06:01:31.769Z,5.50
2023-04-02T06:02:31.924Z,5.53
2023-04-02T06:03:31.836Z,5.50
2023-04-02T06:04:31.732Z,5.50
2023-04-02T06:05:31.701Z,5.55
2023-04-02T06:06:31.713Z,5.53
2023-04-02T06:07:31.684Z,5.60
2023-04-02T06:08:31.674Z,5.52
2023-04-02T06:09:31.658Z,5.46
2023-04-02T06:10:31.645Z,5.55
2023-04-02T06:11:31.676Z,5.49
2023-04-02T06:12:31.633Z,5.50
2023-04-02T06:13:31.615Z,5.56
2023-04-02T06:14:31.617Z,5.49
2023-04-02T06:15:31.595Z,5.53
2023-04-02T06:16:31.618Z,5.66
2023-04-02T06:17:31.589Z,5.59
2023-04-02T06:18:31.564Z,5.49
2023-04-02T06:19:31.553Z,5.60
2023-04-02T06:20:31.540Z,5.53
2023-04-02T06:21:31.544Z,5.59
2023-04-02T06:22:31.516Z,5.56
2023-04-02T06:23:31.554Z,5.59
2023-04-02T06:24:31.498Z,5.55
2023-04-02T06:25:31.517Z,5.57
2023-04-02T06:26:31.502Z,5.57
2023-04-02T06:27:31.488Z,5.59
2023-04-02T06:28:31.475Z,5.74
2023-04-02T06:29:31.445Z,5.74
2023-04-02T06:30:31.450Z,5.67
2023-04-02T06:31:31.439Z,5.74
2023-04-02T06:32:31.430Z,5.81
2023-04-02T06:33:31.421Z,5.83
2023-04-02T06:34:31.391Z,5.83
2023-04-02T06:35:31.388Z,5.85
2023-04-02T06:36:31.387Z,5.98
2023-04-02T06:37:31.367Z,5.98
2023-04-02T06:38:31.347Z,5.95
2023-04-02T06:39:31.341Z,5.96
2023-04-02T06:40:31.330Z,5.96
2023-04-02T06:41:31.360Z,5.92
2023-04-02T06:42:31.319Z,5.85
2023-04-02T06:43:31.322Z,5.93
2023-04-02T06:44:31.293Z,5.91
2023-04-02T06:45:31.280Z,5.96
2023-04-02T06:46:31.350Z,6.06
2023-04-02T06:47:31.326Z,6.10
2023-04-02T06:48:31.251Z,6.16
2023-04-02T06:49:31.238Z,6.09
2023-04-02T06:50:31.301Z,6.22
2023-04-02T06:51:31.214Z,6.33
2023-04-02T06:52:31.987Z,6.30
2023-04-02T06:53:31.196Z,6.29
2023-04-02T06:54:31.184Z,6.44
2023-04-02T06:55:31.231Z,6.41
2023-04-02T06:56:31.161Z,6.41
2023-04-02T06:57:31.269Z,6.53
2023-04-02T06:58:31.141Z,6.50
2023-04-02T06:59:31.150Z,6.90
2023-04-02T07:00:31.125Z,7.09
2023-04-02T07:01:31.182Z,7.20
2023-04-02T07:02:31.176Z,7.19
2023-04-02T07:03:31.089Z,7.22
2023-04-02T07:04:31.114Z,7.23
2023-04-02T07:05:31.073Z,7.17
2023-04-02T07:06:38.116Z,7.16
2023-04-02T07:07:31.046Z,7.04
2023-04-02T07:08:31.030Z,6.94
2023-04-02T07:09:31.022Z,6.91
2023-04-02T07:10:31.007Z,6.95
2023-04-02T07:11:31.003Z,6.90
2023-04-02T07:12:31.004Z,7.05
2023-04-02T07:13:30.981Z,7.35
2023-04-02T07:14:30.962Z,7.31
2023-04-02T07:15:30.974Z,7.52
2023-04-02T07:16:31.030Z,8.21
2023-04-02T07:17:31.034Z,8.29
2023-04-02T07:18:30.920Z,8.94
2023-04-02T07:19:30.916Z,9.28
2023-04-02T07:20:30.918Z,9.40
2023-04-02T07:21:30.891Z,9.61
2023-04-02T07:22:30.924Z,9.53
2023-04-02T07:23:30.873Z,9.31
2023-04-02T07:24:30.856Z,9.04
2023-04-02T07:25:30.860Z,8.65
2023-04-02T07:26:30.835Z,8.44
2023-04-02T07:27:30.840Z,8.32
2023-04-02T07:28:30.809Z,8.10
2023-04-02T07:29:30.802Z,7.90
2023-04-02T07:30:30.794Z,7.66
2023-04-02T07:31:30.876Z,7.72
2023-04-02T07:32:30.939Z,7.56
2023-04-02T07:33:30.825Z,7.74
2023-04-02T07:34:30.759Z,7.55
2023-04-02T07:35:30.744Z,7.47
2023-04-02T07:36:30.765Z,7.44
2023-04-02T07:37:30.739Z,7.29
2023-04-02T07:38:30.700Z,7.23
2023-04-02T07:39:30.695Z,7.22
2023-04-02T07:40:30.675Z,7.19
2023-04-02T07:41:30.674Z,7.08
2023-04-02T07:42:30.674Z,7.08
2023-04-02T07:43:30.695Z,6.95
2023-04-02T07:44:30.642Z,6.91
2023-04-02T07:45:30.631Z,6.83
2023-04-02T07:46:30.663Z,6.91
2023-04-02T07:47:30.731Z,6.94
2023-04-02T07:48:30.595Z,6.91
2023-04-02T07:49:30.601Z,7.16
2023-04-02T07:50:30.571Z,7.42
2023-04-02T07:51:30.564Z,8.03
2023-04-02T07:52:30.567Z,7.96
2023-04-02T07:53:30.605Z,7.92
2023-04-02T07:54:30.537Z,7.85
2023-04-02T07:55:30.525Z,7.75
2023-04-02T07:56:30.512Z,7.74
2023-04-02T07:57:30.577Z,7.67
2023-04-02T07:58:30.484Z,7.55
2023-04-02T07:59:30.482Z,7.56
2023-04-02T08:00:30.522Z,7.32
2023-04-02T08:01:30.454Z,7.15
2023-04-02T08:02:30.560Z,7.12
2023-04-02T08:03:30.593Z,7.09
2023-04-02T08:04:30.422Z,7.07
2023-04-02T08:05:30.431Z,7.05
2023-04-02T08:06:30.397Z,6.94
2023-04-02T08:07:30.403Z,6.94
2023-04-02T08:08:30.376Z,6.90
2023-04-02T08:09:30.370Z,7.01
2023-04-02T08:10:30.358Z,6.99
2023-04-02T08:11:31.825Z,7.02
2023-04-02T08:12:30.366Z,7.01
2023-04-02T08:13:30.339Z,6.95
2023-04-02T08:14:30.345Z,6.97
2023-04-02T08:15:30.306Z,6.99
2023-04-02T08:16:30.297Z,7.07
2023-04-02T08:17:30.334Z,7.08
2023-04-02T08:18:30.278Z,7.08
2023-04-02T08:19:30.285Z,7.08
2023-04-02T08:20:30.259Z,7.09
2023-04-02T08:21:30.238Z,7.13
2023-04-02T08:22:30.247Z,6.99
2023-04-02T08:23:30.244Z,6.98
2023-04-02T08:24:30.209Z,6.95
2023-04-02T08:25:30.202Z,6.99
2023-04-02T08:26:30.196Z,6.91
2023-04-02T08:27:30.181Z,6.98
2023-04-02T08:28:30.250Z,6.86
2023-04-02T08:29:30.159Z,6.91
2023-04-02T08:30:30.140Z,6.86
2023-04-02T08:31:30.160Z,6.87
2023-04-02T08:32:30.152Z,6.86
2023-04-02T08:33:30.352Z,6.86
2023-04-02T08:34:30.109Z,6.98
2023-04-02T08:35:30.113Z,6.91
2023-04-02T08:36:30.144Z,6.90
2023-04-02T08:37:30.111Z,7.02
2023-04-02T08:38:30.076Z,7.16
2023-04-02T08:39:30.047Z,7.15
2023-04-02T08:40:30.040Z,7.20
2023-04-02T08:41:30.026Z,7.22
2023-04-02T08:42:30.014Z,7.20
2023-04-02T08:43:30.035Z,7.22
2023-04-02T08:44:30.014Z,7.41
2023-04-02T08:45:29.989Z,7.42
2023-04-02T08:46:30.027Z,7.52
2023-04-02T08:47:29.983Z,7.45
2023-04-02T08:48:29.969Z,7.40
2023-04-02T08:49:29.944Z,7.35
2023-04-02T08:50:29.926Z,7.38
2023-04-02T08:51:29.941Z,7.35
2023-04-02T08:52:29.928Z,7.37
2023-04-02T08:53:29.920Z,7.34
2023-04-02T08:54:30.476Z,7.37
2023-04-02T08:55:29.881Z,7.41
2023-04-02T08:56:29.872Z,7.29
2023-04-02T08:57:29.890Z,7.31
2023-04-02T08:58:29.854Z,7.34
2023-04-02T08:59:29.874Z,7.34
2023-04-02T09:00:29.819Z,7.40
2023-04-02T09:01:29.848Z,7.35
2023-04-02T09:02:29.851Z,7.42
2023-04-02T09:03:29.789Z,7.41
2023-04-02T09:04:29.798Z,7.31
2023-04-02T09:05:29.763Z,7.40
2023-04-02T09:06:29.752Z,7.44
2023-04-02T09:07:29.789Z,7.40
2023-04-02T09:08:29.749Z,7.45
2023-04-02T09:09:29.717Z,7.42
2023-04-02T09:10:29.709Z,7.50
2023-04-02T09:11:29.712Z,7.47
2023-04-02T09:12:29.703Z,7.55
2023-04-02T09:13:29.679Z,7.49
2023-04-02T09:14:29.666Z,7.58
2023-04-02T09:15:29.664Z,7.50
2023-04-02T09:16:29.664Z,7.59
2023-04-02T09:17:32.803Z,7.67
2023-04-02T09:18:30.742Z,8.20
2023-04-02T09:19:29.616Z,8.96
2023-04-02T09:20:29.600Z,9.71
2023-04-02T09:21:29.599Z,9.94
2023-04-02T09:22:29.595Z,10.10
2023-04-02T09:23:29.605Z,10.07
2023-04-02T09:24:29.567Z,9.91
2023-04-02T09:25:29.552Z,10.06
2023-04-02T09:26:29.535Z,9.85
2023-04-02T09:27:29.543Z,9.75
2023-04-02T09:28:29.519Z,9.43
2023-04-02T09:29:29.508Z,9.23
2023-04-02T09:30:29.503Z,8.90
2023-04-02T09:31:29.526Z,8.84
2023-04-02T09:32:29.554Z,8.73
2023-04-02T09:33:29.464Z,8.86
2023-04-02T09:34:29.456Z,8.79
2023-04-02T09:35:29.440Z,9.24
2023-04-02T09:36:29.478Z,9.45
2023-04-02T09:37:29.487Z,9.48
2023-04-02T09:38:29.417Z,9.46
2023-04-02T09:39:29.435Z,9.63
2023-04-02T09:40:29.396Z,9.78
2023-04-02T09:41:29.391Z,10.33
2023-04-02T09:42:29.385Z,10.65
2023-04-02T09:43:29.412Z,10.68
2023-04-02T09:44:29.347Z,10.77
2023-04-02T09:45:29.333Z,11.02
2023-04-02T09:46:29.390Z,11.07
2023-04-02T09:47:29.388Z,11.44
2023-04-02T09:48:29.298Z,11.67
2023-04-02T09:49:29.328Z,11.46
2023-04-02T09:50:29.330Z,11.34
2023-04-02T09:51:29.364Z,11.03
2023-04-02T09:52:29.319Z,10.78
2023-04-02T09:53:29.355Z,10.55
2023-04-02T09:54:29.237Z,10.33
2023-04-02T09:55:29.252Z,10.21
2023-04-02T09:56:29.215Z,10.21
2023-04-02T09:57:29.331Z,10.14
2023-04-02T09:58:29.210Z,9.99
2023-04-02T09:59:29.212Z,9.83
2023-04-02T10:00:32.550Z,9.71
2023-04-02T10:01:29.214Z,9.93
2023-04-02T10:02:29.259Z,9.93
2023-04-02T10:03:29.149Z,9.58
2023-04-02T10:04:29.148Z,9.63
2023-04-02T10:05:40.052Z,9.60
2023-04-02T10:06:30.106Z,9.64
2023-04-02T10:07:29.092Z,9.61
2023-04-02T10:08:29.095Z,9.64
2023-04-02T10:09:29.068Z,9.81
2023-04-02T10:10:29.066Z,9.66
2023-04-02T10:11:36.416Z,9.63
2023-04-02T10:12:30.036Z,9.70
2023-04-02T10:13:29.065Z,9.57
2023-04-02T10:14:29.015Z,9.58
2023-04-02T10:15:29.008Z,9.58
2023-04-02T10:16:29.096Z,9.45
2023-04-02T10:17:29.013Z,9.38
2023-04-02T10:18:28.985Z,9.35
2023-04-02T10:19:28.956Z,9.35
2023-04-02T10:20:30.502Z,9.35
2023-04-02T10:21:28.936Z,9.42
2023-04-02T10:22:28.927Z,9.38
2023-04-02T10:23:28.952Z,9.40
2023-04-02T10:24:28.967Z,9.43
2023-04-02T10:25:28.917Z,9.39
2023-04-02T10:26:28.896Z,9.39
2023-04-02T10:27:28.908Z,9.39
2023-04-02T10:28:28.877Z,9.40
2023-04-02T10:29:28.860Z,9.35
2023-04-02T10:30:28.891Z,9.67
2023-04-02T10:31:28.849Z,10.53
2023-04-02T10:32:28.868Z,10.89
2023-04-02T10:33:28.839Z,10.89
2023-04-02T10:34:28.830Z,10.95
2023-04-02T10:35:28.823Z,10.73
2023-04-02T10:36:28.781Z,10.37
2023-04-02T10:37:28.768Z,10.12
2023-04-02T10:38:28.790Z,9.99
2023-04-02T10:39:28.744Z,9.89
2023-04-02T10:40:28.737Z,9.81
2023-04-02T10:41:28.722Z,9.83
2023-04-02T10:42:28.720Z,9.64
2023-04-02T10:43:28.754Z,9.66
2023-04-02T10:44:28.702Z,9.58
2023-04-02T10:45:28.691Z,9.61
2023-04-02T10:46:28.704Z,9.56
2023-04-02T10:47:28.666Z,9.56
2023-04-02T10:48:28.667Z,9.49
2023-04-02T10:49:28.701Z,9.42
2023-04-02T10:50:28.635Z,9.31
2023-04-02T10:51:28.618Z,9.27
2023-04-02T10:52:28.608Z,9.15
2023-04-02T10:53:28.615Z,9.13
2023-04-02T10:54:28.585Z,9.16
2023-04-02T10:55:28.574Z,9.16
2023-04-02T10:56:31.418Z,9.05
2023-04-02T10:57:29.592Z,8.94
2023-04-02T10:58:28.557Z,8.94
2023-04-02T10:59:28.547Z,8.94
2023-04-02T11:00:28.517Z,8.97
2023-04-02T11:01:28.575Z,8.91
2023-04-02T11:02:28.556Z,8.88
2023-04-02T11:03:28.690Z,8.86
2023-04-02T11:04:28.512Z,8.76
2023-04-02T11:05:28.470Z,8.76
2023-04-02T11:06:28.683Z,8.93
2023-04-02T11:07:28.444Z,8.90
2023-04-02T11:08:28.446Z,8.81
2023-04-02T11:09:28.424Z,8.75
2023-04-02T11:10:28.413Z,8.78
2023-04-02T11:11:28.402Z,8.73
2023-04-02T11:12:28.390Z,8.84
2023-04-02T11:13:28.398Z,8.87
2023-04-02T11:14:28.368Z,8.83
2023-04-02T11:15:28.376Z,8.96
2023-04-02T11:16:28.394Z,8.93
2023-04-02T11:17:28.382Z,8.88
2023-04-02T11:18:28.339Z,8.87
2023-04-02T11:19:28.338Z,8.69
2023-04-02T11:20:28.301Z,8.79
2023-04-02T11:21:28.293Z,8.91
2023-04-02T11:22:28.288Z,8.91
2023-04-02T11:23:28.348Z,8.88
2023-04-02T11:24:28.259Z,8.88
2023-04-02T11:25:28.243Z,8.81
2023-04-02T11:26:28.240Z,8.84
2023-04-02T11:27:28.237Z,8.93
2023-04-02T11:28:28.256Z,8.78
2023-04-02T11:29:28.211Z,8.63
2023-04-02T11:30:28.197Z,8.68
2023-04-02T11:31:28.216Z,8.63
2023-04-02T11:32:28.221Z,8.57
2023-04-02T11:33:36.592Z,8.63
2023-04-02T11:34:29.152Z,8.62
2023-04-02T11:35:28.135Z,8.58
2023-04-02T11:36:28.134Z,8.62
2023-04-02T11:37:28.119Z,8.62
2023-04-02T11:38:28.129Z,8.57
2023-04-02T11:39:28.125Z,8.53
2023-04-02T11:40:28.091Z,8.47
2023-04-02T11:41:28.075Z,8.55
2023-04-02T11:42:28.063Z,8.53
2023-04-02T11:43:28.079Z,8.58
2023-04-02T11:44:28.059Z,8.53
2023-04-02T11:45:28.056Z,8.55
2023-04-02T11:46:28.080Z,8.53
2023-04-02T11:47:28.107Z,8.53
2023-04-02T11:48:28.049Z,8.55
2023-04-02T11:49:28.012Z,8.66
2023-04-02T11:50:27.977Z,8.91
2023-04-02T11:51:27.966Z,8.83
2023-04-02T11:52:27.989Z,8.87
2023-04-02T11:53:27.959Z,8.93
2023-04-02T11:54:27.940Z,8.94
2023-04-02T11:55:27.936Z,8.88
2023-04-02T11:56:27.938Z,8.90
2023-04-02T11:57:28.014Z,8.91
2023-04-02T11:58:27.897Z,9.05
2023-04-02T11:59:27.875Z,9.13
2023-04-02T12:00:27.868Z,9.24
2023-04-02T12:01:27.860Z,9.30
2023-04-02T12:02:27.924Z,9.31
2023-04-02T12:03:27.909Z,9.27
2023-04-02T12:04:27.861Z,9.20
2023-04-02T12:05:27.909Z,9.16
2023-04-02T12:06:27.840Z,9.06
2023-04-02T12:07:27.788Z,9.09
2023-04-02T12:08:27.801Z,9.13
2023-04-02T12:09:27.770Z,9.21
2023-04-02T12:10:27.755Z,9.20
2023-04-02T12:11:27.755Z,9.30
2023-04-02T12:12:27.738Z,9.23
2023-04-02T12:13:27.743Z,9.10
2023-04-02T12:14:27.718Z,8.87
2023-04-02T12:15:27.699Z,8.90
2023-04-02T12:16:27.708Z,8.88
2023-04-02T12:17:27.713Z,8.93
2023-04-02T12:18:27.699Z,9.13
2023-04-02T12:19:27.683Z,9.25
2023-04-02T12:20:27.653Z,9.23
2023-04-02T12:21:27.636Z,9.28
2023-04-02T12:22:27.649Z,9.38
2023-04-02T12:23:27.644Z,9.43
2023-04-02T12:24:27.673Z,9.43
2023-04-02T12:25:27.592Z,9.43
2023-04-02T12:26:27.606Z,9.49
2023-04-02T12:27:27.741Z,9.50
2023-04-02T12:28:27.570Z,9.40
2023-04-02T12:29:27.555Z,9.35
2023-04-02T12:30:27.537Z,9.45
2023-04-02T12:31:27.589Z,9.39
2023-04-02T12:32:29.593Z,9.42
2023-04-02T12:33:27.540Z,9.42
2023-04-02T12:34:27.496Z,9.46
2023-04-02T12:35:27.516Z,9.43
2023-04-02T12:36:27.482Z,9.63
2023-04-02T12:37:27.463Z,9.43
2023-04-02T12:38:27.472Z,9.48
2023-04-02T12:39:28.434Z,9.39
2023-04-02T12:40:27.436Z,9.40
2023-04-02T12:41:27.500Z,9.40
2023-04-02T12:42:27.406Z,9.38
2023-04-02T12:43:27.430Z,9.31
2023-04-02T12:44:27.385Z,9.34
2023-04-02T12:45:29.372Z,9.31
2023-04-02T12:46:27.474Z,9.35
2023-04-02T12:47:27.376Z,9.42
2023-04-02T12:48:27.362Z,9.35
2023-04-02T12:49:27.371Z,9.46
2023-04-02T12:50:27.320Z,9.64
2023-04-02T12:51:28.419Z,9.58
2023-04-02T12:52:27.303Z,9.68
2023-04-02T12:53:27.306Z,9.70
2023-04-02T12:54:27.275Z,9.75
2023-04-02T12:55:27.293Z,9.93
2023-04-02T12:56:27.257Z,9.99
2023-04-02T12:57:27.272Z,10.09
2023-04-02T12:58:27.257Z,10.15
2023-04-02T12:59:27.228Z,10.14
2023-04-02T13:00:27.210Z,10.15
2023-04-02T13:01:27.270Z,10.15
2023-04-02T13:02:27.241Z,10.18
2023-04-02T13:03:29.194Z,10.18
2023-04-02T13:04:27.175Z,10.19
2023-04-02T13:05:27.161Z,10.14
2023-04-02T13:06:34.881Z,10.09
2023-04-02T13:07:27.143Z,10.14
2023-04-02T13:08:27.154Z,10.14
2023-04-02T13:09:28.641Z,10.18
2023-04-02T13:10:27.112Z,10.06
2023-04-02T13:11:27.103Z,9.97
2023-04-02T13:12:27.079Z,9.93
2023-04-02T13:13:27.114Z,9.97
2023-04-02T13:14:27.082Z,9.93
2023-04-02T13:15:28.331Z,9.81
2023-04-02T13:16:27.055Z,9.82
2023-04-02T13:17:27.044Z,9.81